sensor_id;sensor_type;location;lat;lon;timestamp;pressure;altitude;pressure_sealevel;temperature;humidity
32851;BME280;19202;48.992;8.390;2022-11-22T00:02:07;98330.16;;;10.12;83.00
32851;BME280;19202;48.992;8.390;2022-11-22T00:07:45;98332.06;;;10.10;83.42
32851;BME280;19202;48.992;8.390;2022-11-22T00:13:23;98323.06;;;10.12;83.34
32851;BME280;19202;48.992;8.390;2022-11-22T00:19:01;98320.34;;;10.14;83.16
32851;BME280;19202;48.992;8.390;2022-11-22T00:24:39;98318.84;;;10.10;84.31
32851;BME280;19202;48.992;8.390;2022-11-22T00:30:17;98318.84;;;10.10;83.53
32851;BME280;19202;48.992;8.390;2022-11-22T00:35:56;98329.56;;;10.07;84.91
32851;BME280;19202;48.992;8.390;2022-11-22T00:41:33;98345.44;;;10.07;84.75
32851;BME280;19202;48.992;8.390;2022-11-22T00:47:11;98354.31;;;10.06;85.01
32851;BME280;19202;48.992;8.390;2022-11-22T00:52:49;98367.72;;;10.03;87.17
32851;BME280;19202;48.992;8.390;2022-11-22T00:58:27;98372.09;;;9.90;88.73
32851;BME280;19202;48.992;8.390;2022-11-22T01:04:05;98364.34;;;9.87;89.87
32851;BME280;19202;48.992;8.390;2022-11-22T01:09:43;98387.38;;;9.85;90.00
32851;BME280;19202;48.992;8.390;2022-11-22T01:15:21;98389.09;;;9.86;91.96
32851;BME280;19202;48.992;8.390;2022-11-22T01:20:58;98394.00;;;9.78;93.18
32851;BME280;19202;48.992;8.390;2022-11-22T01:26:37;98397.47;;;9.78;94.30
32851;BME280;19202;48.992;8.390;2022-11-22T01:32:14;98398.91;;;9.84;93.25
32851;BME280;19202;48.992;8.390;2022-11-22T01:37:52;98406.47;;;9.76;94.73
32851;BME280;19202;48.992;8.390;2022-11-22T01:43:30;98426.25;;;9.83;94.63
32851;BME280;19202;48.992;8.390;2022-11-22T01:49:13;98411.03;;;9.86;94.50
32851;BME280;19202;48.992;8.390;2022-11-22T01:54:58;98411.91;;;9.87;94.29
32851;BME280;19202;48.992;8.390;2022-11-22T02:00:37;98417.00;;;9.90;94.40
32851;BME280;19202;48.992;8.390;2022-11-22T02:06:16;98419.28;;;9.82;95.41
32851;BME280;19202;48.992;8.390;2022-11-22T02:11:56;98429.91;;;9.94;93.31
32851;BME280;19202;48.992;8.390;2022-11-22T02:17:36;98440.03;;;9.88;93.91
32851;BME280;19202;48.992;8.390;2022-11-22T02:29:00;98455.28;;;9.97;93.00
32851;BME280;19202;48.992;8.390;2022-11-22T02:34:44;98456.38;;;10.07;92.24
32851;BME280;19202;48.992;8.390;2022-11-22T02:40:23;98465.00;;;9.96;93.06
32851;BME280;19202;48.992;8.390;2022-11-22T02:46:04;98469.63;;;9.93;93.31
32851;BME280;19202;48.992;8.390;2022-11-22T02:51:42;98478.50;;;9.92;93.33
32851;BME280;19202;48.992;8.390;2022-11-22T02:57:20;98483.97;;;9.89;92.35
32851;BME280;19202;48.992;8.390;2022-11-22T03:02:58;98485.09;;;9.99;91.04
32851;BME280;19202;48.992;8.390;2022-11-22T03:08:36;98476.63;;;9.94;90.76
32851;BME280;19202;48.992;8.390;2022-11-22T03:14:14;98481.69;;;9.97;89.69
32851;BME280;19202;48.992;8.390;2022-11-22T03:19:52;98487.94;;;9.96;89.23
32851;BME280;19202;48.992;8.390;2022-11-22T03:25:30;98504.72;;;9.95;89.07
32851;BME280;19202;48.992;8.390;2022-11-22T03:31:08;98495.41;;;9.75;88.06
32851;BME280;19202;48.992;8.390;2022-11-22T03:36:46;98505.19;;;9.73;87.66
32851;BME280;19202;48.992;8.390;2022-11-22T03:42:24;98519.06;;;9.77;87.91
32851;BME280;19202;48.992;8.390;2022-11-22T03:48:02;98513.69;;;9.78;87.75
32851;BME280;19202;48.992;8.390;2022-11-22T03:53:40;98529.06;;;9.72;89.15
32851;BME280;19202;48.992;8.390;2022-11-22T03:59:18;98531.78;;;9.70;89.78
32851;BME280;19202;48.992;8.390;2022-11-22T04:04:56;98539.44;;;9.75;89.68
32851;BME280;19202;48.992;8.390;2022-11-22T04:10:34;98541.50;;;9.70;88.47
32851;BME280;19202;48.992;8.390;2022-11-22T04:16:12;98537.81;;;9.72;87.63
32851;BME280;19202;48.992;8.390;2022-11-22T04:21:49;98541.19;;;9.60;87.30
32851;BME280;19202;48.992;8.390;2022-11-22T04:27:27;98540.38;;;9.60;87.45
32851;BME280;19202;48.992;8.390;2022-11-22T04:33:05;98542.31;;;9.56;87.38
32851;BME280;19202;48.992;8.390;2022-11-22T04:38:43;98536.78;;;9.61;87.01
32851;BME280;19202;48.992;8.390;2022-11-22T04:44:21;98532.81;;;9.54;86.68
32851;BME280;19202;48.992;8.390;2022-11-22T04:50:18;98528.84;;;9.47;86.83
32851;BME280;19202;48.992;8.390;2022-11-22T04:56:15;98527.31;;;9.43;87.01
32851;BME280;19202;48.992;8.390;2022-11-22T05:01:52;98519.41;;;9.43;87.06
32851;BME280;19202;48.992;8.390;2022-11-22T05:07:32;98531.75;;;9.42;86.95
32851;BME280;19202;48.992;8.390;2022-11-22T05:13:10;98543.34;;;9.40;86.42
32851;BME280;19202;48.992;8.390;2022-11-22T05:18:48;98518.47;;;9.14;88.19
32851;BME280;19202;48.992;8.390;2022-11-22T05:24:35;98537.81;;;9.14;88.24
32851;BME280;19202;48.992;8.390;2022-11-22T05:30:13;98541.88;;;9.20;87.58
32851;BME280;19202;48.992;8.390;2022-11-22T05:35:51;98548.06;;;9.05;88.61
32851;BME280;19202;48.992;8.390;2022-11-22T05:41:29;98559.63;;;9.02;89.52
32851;BME280;19202;48.992;8.390;2022-11-22T05:47:07;98569.34;;;8.86;91.43
32851;BME280;19202;48.992;8.390;2022-11-22T05:52:46;98578.22;;;8.85;92.47
32851;BME280;19202;48.992;8.390;2022-11-22T05:58:24;98585.19;;;8.86;92.16
32851;BME280;19202;48.992;8.390;2022-11-22T06:04:02;98583.56;;;8.99;91.78
32851;BME280;19202;48.992;8.390;2022-11-22T06:09:41;98596.94;;;8.81;93.50
32851;BME280;19202;48.992;8.390;2022-11-22T06:15:19;98598.34;;;8.86;92.38
32851;BME280;19202;48.992;8.390;2022-11-22T06:20:58;98603.13;;;8.95;91.27
32851;BME280;19202;48.992;8.390;2022-11-22T06:26:37;98613.91;;;9.06;89.57
32851;BME280;19202;48.992;8.390;2022-11-22T06:32:14;98607.69;;;8.92;89.01
32851;BME280;19202;48.992;8.390;2022-11-22T06:37:52;98611.88;;;8.96;87.83
32851;BME280;19202;48.992;8.390;2022-11-22T06:43:32;98639.09;;;8.96;88.52
32851;BME280;19202;48.992;8.390;2022-11-22T06:49:10;98637.06;;;9.01;88.13
32851;BME280;19202;48.992;8.390;2022-11-22T06:54:48;98638.41;;;9.08;88.40
32851;BME280;19202;48.992;8.390;2022-11-22T07:00:25;98643.69;;;9.08;88.48
32851;BME280;19202;48.992;8.390;2022-11-22T07:06:05;98647.19;;;9.09;89.12
32851;BME280;19202;48.992;8.390;2022-11-22T07:11:43;98648.97;;;9.08;89.68
32851;BME280;19202;48.992;8.390;2022-11-22T07:17:21;98668.03;;;9.13;90.07
32851;BME280;19202;48.992;8.390;2022-11-22T07:22:58;98681.38;;;9.10;91.35
32851;BME280;19202;48.992;8.390;2022-11-22T07:28:36;98676.88;;;9.12;90.27
32851;BME280;19202;48.992;8.390;2022-11-22T07:34:14;98683.88;;;9.13;90.78
32851;BME280;19202;48.992;8.390;2022-11-22T07:39:52;98685.22;;;9.20;90.10
32851;BME280;19202;48.992;8.390;2022-11-22T07:45:31;98698.16;;;9.25;89.63
32851;BME280;19202;48.992;8.390;2022-11-22T07:51:09;98721.81;;;9.26;89.53
32851;BME280;19202;48.992;8.390;2022-11-22T07:56:47;98732.53;;;9.23;89.74
32851;BME280;19202;48.992;8.390;2022-11-22T08:02:25;98729.38;;;9.32;88.78
32851;BME280;19202;48.992;8.390;2022-11-22T08:08:03;98735.31;;;9.36;87.91
32851;BME280;19202;48.992;8.390;2022-11-22T08:13:41;98748.03;;;9.29;87.44
32851;BME280;19202;48.992;8.390;2022-11-22T08:19:20;98731.00;;;9.19;87.29
32851;BME280;19202;48.992;8.390;2022-11-22T08:24:58;98726.75;;;9.32;85.64
32851;BME280;19202;48.992;8.390;2022-11-22T08:30:37;98724.72;;;9.38;85.03
32851;BME280;19202;48.992;8.390;2022-11-22T08:36:15;98710.91;;;9.32;84.39
32851;BME280;19202;48.992;8.390;2022-11-22T08:41:53;98724.41;;;9.42;84.60
32851;BME280;19202;48.992;8.390;2022-11-22T08:47:30;98725.19;;;9.60;83.79
32851;BME280;19202;48.992;8.390;2022-11-22T08:53:08;98723.56;;;9.57;83.68
32851;BME280;19202;48.992;8.390;2022-11-22T08:58:46;98721.69;;;9.59;83.99
32851;BME280;19202;48.992;8.390;2022-11-22T09:04:24;98727.88;;;9.74;84.17
32851;BME280;19202;48.992;8.390;2022-11-22T09:10:02;98743.03;;;9.86;83.83
32851;BME280;19202;48.992;8.390;2022-11-22T09:15:42;98726.09;;;10.04;82.78
32851;BME280;19202;48.992;8.390;2022-11-22T09:21:20;98731.63;;;10.29;81.64
32851;BME280;19202;48.992;8.390;2022-11-22T09:26:58;98719.66;;;10.38;80.16
32851;BME280;19202;48.992;8.390;2022-11-22T09:32:36;98732.31;;;10.61;78.99
32851;BME280;19202;48.992;8.390;2022-11-22T09:38:14;98729.03;;;10.71;78.79
32851;BME280;19202;48.992;8.390;2022-11-22T09:44:16;98726.66;;;10.81;77.85
32851;BME280;19202;48.992;8.390;2022-11-22T09:55:58;98717.13;;;10.92;77.09
32851;BME280;19202;48.992;8.390;2022-11-22T10:01:51;98734.03;;;10.90;75.99
32851;BME280;19202;48.992;8.390;2022-11-22T10:07:36;98733.75;;;10.80;75.07
32851;BME280;19202;48.992;8.390;2022-11-22T10:13:41;98723.94;;;10.68;72.90
32851;BME280;19202;48.992;8.390;2022-11-22T10:19:30;98733.84;;;10.65;72.91
32851;BME280;19202;48.992;8.390;2022-11-22T10:31:16;98734.03;;;10.62;70.35
32851;BME280;19202;48.992;8.390;2022-11-22T10:37:15;98744.63;;;10.62;70.07
32851;BME280;19202;48.992;8.390;2022-11-22T10:55:20;98739.78;;;10.96;69.32
32851;BME280;19202;48.992;8.390;2022-11-22T11:01:09;98727.75;;;11.05;68.45
32851;BME280;19202;48.992;8.390;2022-11-22T11:06:57;98731.06;;;11.23;68.33
32851;BME280;19202;48.992;8.390;2022-11-22T11:12:45;98737.09;;;11.25;67.57
32851;BME280;19202;48.992;8.390;2022-11-22T11:24:16;98717.69;;;11.38;64.17
32851;BME280;19202;48.992;8.390;2022-11-22T11:30:01;98700.56;;;11.70;64.80
32851;BME280;19202;48.992;8.390;2022-11-22T11:35:40;98709.38;;;11.71;57.79
32851;BME280;19202;48.992;8.390;2022-11-22T11:41:34;98702.19;;;11.59;58.73
32851;BME280;19202;48.992;8.390;2022-11-22T11:47:17;98710.53;;;11.53;57.93
32851;BME280;19202;48.992;8.390;2022-11-22T11:53:05;98694.31;;;11.45;57.24
32851;BME280;19202;48.992;8.390;2022-11-22T11:58:49;98689.38;;;11.92;58.47
32851;BME280;19202;48.992;8.390;2022-11-22T12:04:31;98687.28;;;11.97;55.12
32851;BME280;19202;48.992;8.390;2022-11-22T12:16:23;98671.56;;;11.94;53.90
32851;BME280;19202;48.992;8.390;2022-11-22T12:27:44;98648.69;;;12.06;55.27
32851;BME280;19202;48.992;8.390;2022-11-22T12:33:31;98644.56;;;12.39;54.76
32851;BME280;19202;48.992;8.390;2022-11-22T12:39:14;98636.19;;;12.45;55.15
32851;BME280;19202;48.992;8.390;2022-11-22T12:44:59;98632.44;;;12.48;52.61
32851;BME280;19202;48.992;8.390;2022-11-22T12:50:43;98639.31;;;12.63;52.28
32851;BME280;19202;48.992;8.390;2022-11-22T12:56:47;98640.81;;;12.54;53.45
32851;BME280;19202;48.992;8.390;2022-11-22T13:02:44;98635.09;;;12.48;53.04
32851;BME280;19202;48.992;8.390;2022-11-22T13:08:38;98633.72;;;12.42;54.45
32851;BME280;19202;48.992;8.390;2022-11-22T13:14:21;98638.53;;;12.37;54.38
32851;BME280;19202;48.992;8.390;2022-11-22T13:20:04;98631.81;;;12.32;54.72
32851;BME280;19202;48.992;8.390;2022-11-22T13:26:28;98640.22;;;12.13;54.28
32851;BME280;19202;48.992;8.390;2022-11-22T13:32:05;98662.06;;;12.29;54.88
32851;BME280;19202;48.992;8.390;2022-11-22T13:37:45;98661.75;;;12.09;55.04
32851;BME280;19202;48.992;8.390;2022-11-22T13:43:31;98650.19;;;11.97;55.81
32851;BME280;19202;48.992;8.390;2022-11-22T14:06:21;98650.91;;;11.60;57.54
32851;BME280;19202;48.992;8.390;2022-11-22T14:17:51;98669.31;;;11.49;58.46
32851;BME280;19202;48.992;8.390;2022-11-22T14:35:35;98674.16;;;11.16;62.17
32851;BME280;19202;48.992;8.390;2022-11-22T14:41:29;98678.91;;;11.11;62.40
32851;BME280;19202;48.992;8.390;2022-11-22T14:47:11;98688.38;;;11.00;63.52
32851;BME280;19202;48.992;8.390;2022-11-22T14:52:53;98704.16;;;10.88;65.31
32851;BME280;19202;48.992;8.390;2022-11-22T14:58:37;98711.81;;;10.92;65.73
32851;BME280;19202;48.992;8.390;2022-11-22T15:16:25;98714.50;;;10.50;70.73
32851;BME280;19202;48.992;8.390;2022-11-22T15:22:13;98725.59;;;10.41;72.03
32851;BME280;19202;48.992;8.390;2022-11-22T15:28:00;98734.13;;;10.46;72.71
32851;BME280;19202;48.992;8.390;2022-11-22T15:33:38;98740.31;;;10.31;73.79
32851;BME280;19202;48.992;8.390;2022-11-22T15:39:18;98747.31;;;10.32;73.62
32851;BME280;19202;48.992;8.390;2022-11-22T15:44:57;98758.81;;;10.31;74.74
32851;BME280;19202;48.992;8.390;2022-11-22T15:50:34;98767.31;;;10.22;76.34
32851;BME280;19202;48.992;8.390;2022-11-22T15:56:22;98771.78;;;10.06;79.09
32851;BME280;19202;48.992;8.390;2022-11-22T16:02:18;98795.16;;;9.98;80.29
32851;BME280;19202;48.992;8.390;2022-11-22T16:07:59;98798.56;;;9.84;81.99
32851;BME280;19202;48.992;8.390;2022-11-22T16:13:38;98806.53;;;9.98;80.21
32851;BME280;19202;48.992;8.390;2022-11-22T16:19:20;98804.34;;;9.91;83.25
32851;BME280;19202;48.992;8.390;2022-11-22T16:25:30;98804.34;;;9.91;83.97
32851;BME280;19202;48.992;8.390;2022-11-22T16:31:29;98805.75;;;9.67;88.02
32851;BME280;19202;48.992;8.390;2022-11-22T16:37:30;98808.16;;;9.56;88.30
32851;BME280;19202;48.992;8.390;2022-11-22T16:43:31;98796.03;;;9.36;89.35
32851;BME280;19202;48.992;8.390;2022-11-22T16:49:20;98804.66;;;9.40;89.32
32851;BME280;19202;48.992;8.390;2022-11-22T16:54:58;98802.69;;;9.43;88.28
32851;BME280;19202;48.992;8.390;2022-11-22T17:00:37;98809.16;;;9.38;88.64
32851;BME280;19202;48.992;8.390;2022-11-22T17:06:19;98803.53;;;9.44;87.61
32851;BME280;19202;48.992;8.390;2022-11-22T17:11:58;98806.00;;;9.47;87.18
32851;BME280;19202;48.992;8.390;2022-11-22T17:17:36;98802.34;;;9.49;86.33
32851;BME280;19202;48.992;8.390;2022-11-22T17:23:34;98799.47;;;9.54;85.32
32851;BME280;19202;48.992;8.390;2022-11-22T17:29:16;98814.94;;;9.44;85.27
32851;BME280;19202;48.992;8.390;2022-11-22T17:34:54;98818.09;;;9.51;84.58
32851;BME280;19202;48.992;8.390;2022-11-22T17:40:32;98815.31;;;9.54;83.82
32851;BME280;19202;48.992;8.390;2022-11-22T17:46:09;98836.06;;;9.60;83.39
32851;BME280;19202;48.992;8.390;2022-11-22T17:51:47;98836.91;;;9.60;82.74
32851;BME280;19202;48.992;8.390;2022-11-22T17:57:25;98842.72;;;9.67;81.82
32851;BME280;19202;48.992;8.390;2022-11-22T18:03:03;98843.22;;;9.58;81.56
32851;BME280;19202;48.992;8.390;2022-11-22T18:08:41;98846.78;;;9.57;81.42
32851;BME280;19202;48.992;8.390;2022-11-22T18:14:19;98865.38;;;9.55;81.34
32851;BME280;19202;48.992;8.390;2022-11-22T18:19:58;98872.75;;;9.49;81.60
32851;BME280;19202;48.992;8.390;2022-11-22T18:25:36;98866.81;;;9.45;81.73
32851;BME280;19202;48.992;8.390;2022-11-22T18:31:14;98874.63;;;9.62;80.97
32851;BME280;19202;48.992;8.390;2022-11-22T18:36:52;98879.25;;;9.59;80.71
32851;BME280;19202;48.992;8.390;2022-11-22T18:42:30;98870.13;;;9.49;81.11
32851;BME280;19202;48.992;8.390;2022-11-22T18:48:08;98861.09;;;9.53;81.12
32851;BME280;19202;48.992;8.390;2022-11-22T18:53:46;98875.06;;;9.55;81.03
32851;BME280;19202;48.992;8.390;2022-11-22T18:59:24;98868.25;;;9.51;80.59
32851;BME280;19202;48.992;8.390;2022-11-22T19:05:02;98878.22;;;9.46;81.17
32851;BME280;19202;48.992;8.390;2022-11-22T19:10:40;98880.88;;;9.46;81.44
32851;BME280;19202;48.992;8.390;2022-11-22T19:16:21;98881.78;;;9.45;81.11
32851;BME280;19202;48.992;8.390;2022-11-22T19:21:59;98887.75;;;9.48;80.80
32851;BME280;19202;48.992;8.390;2022-11-22T19:27:38;98881.44;;;9.51;80.29
32851;BME280;19202;48.992;8.390;2022-11-22T19:33:15;98876.50;;;9.45;80.49
32851;BME280;19202;48.992;8.390;2022-11-22T19:38:53;98875.91;;;9.40;80.49
32851;BME280;19202;48.992;8.390;2022-11-22T19:44:31;98881.19;;;9.40;80.07
32851;BME280;19202;48.992;8.390;2022-11-22T19:50:09;98888.00;;;9.44;79.81
32851;BME280;19202;48.992;8.390;2022-11-22T19:55:47;98892.53;;;9.42;79.71
32851;BME280;19202;48.992;8.390;2022-11-22T20:01:27;98893.78;;;9.50;78.89
32851;BME280;19202;48.992;8.390;2022-11-22T20:07:05;98897.72;;;9.43;78.55
32851;BME280;19202;48.992;8.390;2022-11-22T20:12:44;98903.91;;;9.42;78.54
32851;BME280;19202;48.992;8.390;2022-11-22T20:18:22;98911.00;;;9.42;78.75
32851;BME280;19202;48.992;8.390;2022-11-22T20:24:00;98916.28;;;9.42;78.13
32851;BME280;19202;48.992;8.390;2022-11-22T20:29:39;98921.38;;;9.45;78.23
32851;BME280;19202;48.992;8.390;2022-11-22T20:35:17;98924.69;;;9.48;77.96
32851;BME280;19202;48.992;8.390;2022-11-22T20:40:55;98939.06;;;9.60;77.83
32851;BME280;19202;48.992;8.390;2022-11-22T20:46:35;98942.91;;;9.70;77.27
32851;BME280;19202;48.992;8.390;2022-11-22T20:52:13;98939.50;;;9.68;77.04
32851;BME280;19202;48.992;8.390;2022-11-22T20:57:51;98951.16;;;9.64;77.06
32851;BME280;19202;48.992;8.390;2022-11-22T21:03:29;98955.16;;;9.71;76.87
32851;BME280;19202;48.992;8.390;2022-11-22T21:09:07;98955.50;;;9.65;77.05
32851;BME280;19202;48.992;8.390;2022-11-22T21:14:45;98963.06;;;9.71;76.79
32851;BME280;19202;48.992;8.390;2022-11-22T21:20:23;98966.66;;;9.70;76.32
32851;BME280;19202;48.992;8.390;2022-11-22T21:26:01;98972.72;;;9.72;76.40
32851;BME280;19202;48.992;8.390;2022-11-22T21:31:41;98984.28;;;9.69;76.56
32851;BME280;19202;48.992;8.390;2022-11-22T21:37:19;98986.31;;;9.64;76.67
32851;BME280;19202;48.992;8.390;2022-11-22T21:42:57;98984.53;;;9.65;76.58
32851;BME280;19202;48.992;8.390;2022-11-22T21:48:34;98985.31;;;9.67;76.21
32851;BME280;19202;48.992;8.390;2022-11-22T21:54:13;98985.31;;;9.67;76.40
32851;BME280;19202;48.992;8.390;2022-11-22T21:59:51;98988.56;;;9.72;75.93
32851;BME280;19202;48.992;8.390;2022-11-22T22:05:30;98982.06;;;9.62;76.27
32851;BME280;19202;48.992;8.390;2022-11-22T22:11:08;98993.56;;;9.61;76.31
32851;BME280;19202;48.992;8.390;2022-11-22T22:16:45;98989.22;;;9.60;76.51
32851;BME280;19202;48.992;8.390;2022-11-22T22:22:23;98987.03;;;9.68;76.13
32851;BME280;19202;48.992;8.390;2022-11-22T22:28:02;98998.59;;;9.65;76.03
32851;BME280;19202;48.992;8.390;2022-11-22T22:33:40;98989.03;;;9.63;76.11
32851;BME280;19202;48.992;8.390;2022-11-22T22:39:18;98993.66;;;9.59;76.31
32851;BME280;19202;48.992;8.390;2022-11-22T22:44:56;98996.88;;;9.64;76.01
32851;BME280;19202;48.992;8.390;2022-11-22T22:50:34;98999.94;;;9.57;76.20
32851;BME280;19202;48.992;8.390;2022-11-22T22:56:13;98994.53;;;9.43;76.55
32851;BME280;19202;48.992;8.390;2022-11-22T23:01:51;99011.53;;;9.37;76.83
32851;BME280;19202;48.992;8.390;2022-11-22T23:07:29;99008.22;;;9.33;76.99
32851;BME280;19202;48.992;8.390;2022-11-22T23:13:07;99013.50;;;9.33;77.14
32851;BME280;19202;48.992;8.390;2022-11-22T23:18:45;99018.59;;;9.36;76.92
32851;BME280;19202;48.992;8.390;2022-11-22T23:24:23;99019.28;;;9.40;76.93
32851;BME280;19202;48.992;8.390;2022-11-22T23:30:01;99024.66;;;9.38;77.13
32851;BME280;19202;48.992;8.390;2022-11-22T23:35:39;99017.41;;;9.42;77.52
32851;BME280;19202;48.992;8.390;2022-11-22T23:41:19;99025.28;;;9.44;77.60
32851;BME280;19202;48.992;8.390;2022-11-22T23:46:57;99006.19;;;9.38;77.97
32851;BME280;19202;48.992;8.390;2022-11-22T23:52:35;99010.59;;;9.38;78.05
32851;BME280;19202;48.992;8.390;2022-11-22T23:58:14;99013.00;;;9.43;77.67
